createdAt,value
2022-09-17T00:00:01.595Z,12.66
2022-09-17T00:04:11.256Z,12.67
2022-09-17T00:08:15.971Z,12.66
2022-09-17T00:12:18.194Z,12.66
2022-09-17T00:16:32.738Z,12.61
2022-09-17T00:20:42.491Z,12.49
2022-09-17T00:24:44.905Z,12.40
2022-09-17T00:28:54.041Z,12.44
2022-09-17T00:32:58.332Z,12.51
2022-09-17T00:37:03.126Z,12.59
2022-09-17T00:41:07.045Z,12.58
2022-09-17T00:45:13.410Z,12.56
2022-09-17T00:49:31.146Z,12.55
2022-09-17T00:53:35.675Z,12.56
2022-09-17T00:57:39.344Z,12.59
2022-09-17T01:01:46.963Z,12.55
2022-09-17T01:06:05.161Z,12.55
2022-09-17T01:10:42.362Z,12.52
2022-09-17T01:14:59.675Z,12.44
2022-09-17T01:19:22.504Z,12.43
2022-09-17T01:23:37.941Z,12.40
2022-09-17T01:27:45.770Z,12.34
2022-09-17T01:31:59.092Z,12.26
2022-09-17T01:36:28.579Z,12.22
2022-09-17T01:40:46.256Z,12.08
2022-09-17T01:45:03.387Z,11.85
2022-09-17T01:49:07.021Z,11.79
2022-09-17T01:53:22.921Z,11.70
2022-09-17T01:57:37.290Z,11.69
2022-09-17T02:01:46.587Z,11.70
2022-09-17T02:06:03.524Z,11.63
2022-09-17T02:10:35.024Z,11.57
2022-09-17T02:14:46.326Z,11.54
2022-09-17T02:19:00.362Z,11.59
2022-09-17T02:23:14.572Z,11.54
2022-09-17T02:27:46.522Z,11.53
2022-09-17T02:31:48.707Z,11.48
2022-09-17T02:35:53.295Z,11.33
2022-09-17T02:39:56.951Z,11.21
2022-09-17T02:44:16.503Z,11.13
2022-09-17T02:49:01.820Z,11.06
2022-09-17T02:53:32.084Z,11.05
2022-09-17T02:57:42.394Z,11.05
2022-09-17T03:01:59.439Z,11.02
2022-09-17T03:06:02.181Z,11.01
2022-09-17T03:10:05.619Z,11.06
2022-09-17T03:14:07.949Z,11.13
2022-09-17T03:18:12.592Z,11.05
2022-09-17T03:22:15.073Z,11.05
2022-09-17T03:26:17.498Z,11.11
2022-09-17T03:30:20.204Z,11.12
2022-09-17T03:34:22.453Z,11.13
2022-09-17T03:38:24.870Z,11.12
2022-09-17T03:42:27.287Z,11.11
2022-09-17T03:46:29.601Z,11.11
2022-09-17T03:50:36.576Z,11.06
2022-09-17T03:54:39.781Z,11.02
2022-09-17T03:58:58.359Z,11.05
2022-09-17T04:03:06.437Z,10.99
2022-09-17T04:07:08.740Z,11.05
2022-09-17T04:11:11.424Z,11.05
2022-09-17T04:15:16.062Z,11.08
2022-09-17T04:19:18.256Z,11.09
2022-09-17T04:23:22.597Z,11.09
2022-09-17T04:27:25.138Z,11.06
2022-09-17T04:31:28.724Z,11.12
2022-09-17T04:35:33.035Z,11.16
2022-09-17T04:39:35.889Z,11.13
2022-09-17T04:43:38.059Z,11.16
2022-09-17T04:47:40.848Z,11.16
2022-09-17T04:51:47.734Z,11.19
2022-09-17T04:55:49.860Z,11.26
2022-09-17T04:59:54.438Z,11.28
2022-09-17T05:04:02.454Z,11.26
2022-09-17T05:08:11.376Z,11.31
2022-09-17T05:12:13.420Z,11.27
2022-09-17T05:16:20.758Z,11.31
2022-09-17T05:20:23.517Z,11.31
2022-09-17T05:24:25.634Z,11.31
2022-09-17T05:28:30.174Z,11.31
2022-09-17T05:32:32.602Z,11.39
2022-09-17T05:36:40.158Z,11.35
2022-09-17T05:40:42.326Z,11.42
2022-09-17T05:44:48.579Z,11.48
2022-09-17T05:48:58.228Z,11.54
2022-09-17T05:53:09.251Z,11.57
2022-09-17T05:57:16.139Z,11.63
2022-09-17T06:01:20.875Z,11.67
2022-09-17T06:05:24.041Z,11.75
2022-09-17T06:09:29.772Z,11.81
2022-09-17T06:13:34.973Z,11.79
2022-09-17T06:17:39.347Z,11.82
2022-09-17T06:21:44.647Z,11.88
2022-09-17T06:25:58.670Z,11.98
2022-09-17T06:30:01.402Z,12.03
2022-09-17T06:34:05.530Z,12.12
2022-09-17T06:38:07.132Z,12.15
2022-09-17T06:42:08.869Z,12.19
2022-09-17T06:46:10.844Z,12.29
2022-09-17T06:50:12.407Z,12.30
2022-09-17T06:54:13.946Z,12.34
2022-09-17T06:58:15.719Z,12.37
2022-09-17T07:02:17.250Z,12.48
2022-09-17T07:06:18.973Z,12.55
2022-09-17T07:10:21.751Z,12.69
2022-09-17T07:14:24.716Z,12.81
2022-09-17T07:18:27.109Z,12.92
2022-09-17T07:22:28.617Z,13.09
2022-09-17T07:26:30.119Z,13.16
2022-09-17T07:30:31.719Z,13.16
2022-09-17T07:34:33.219Z,13.19
2022-09-17T07:38:35.144Z,13.21
2022-09-17T07:42:36.702Z,13.14
2022-09-17T07:46:38.342Z,13.04
2022-09-17T07:50:39.886Z,12.95
2022-09-17T07:54:41.405Z,12.94
2022-09-17T07:58:42.947Z,13.01
2022-09-17T08:02:44.596Z,13.16
2022-09-17T08:06:48.427Z,13.39
2022-09-17T08:10:49.945Z,13.65
2022-09-17T08:14:51.400Z,13.80
2022-09-17T08:18:57.123Z,13.99
2022-09-17T08:23:00.400Z,14.13
2022-09-17T08:27:01.917Z,14.27
2022-09-17T08:31:08.624Z,14.46
2022-09-17T08:35:11.784Z,14.61
2022-09-17T08:39:13.899Z,14.71
2022-09-17T08:43:18.809Z,14.87
2022-09-17T08:47:28.396Z,15.01
2022-09-17T08:52:01.589Z,15.03
2022-09-17T08:56:13.765Z,15.35
2022-09-17T09:00:18.779Z,15.33
2022-09-17T09:04:52.641Z,15.12
2022-09-17T09:08:59.099Z,15.01
2022-09-17T09:13:01.921Z,14.91
2022-09-17T09:17:08.710Z,15.20
2022-09-17T09:21:17.656Z,15.51
2022-09-17T09:25:23.852Z,15.62
2022-09-17T09:30:03.256Z,15.58
2022-09-17T09:34:05.354Z,15.62
2022-09-17T09:38:09.863Z,15.44
2022-09-17T09:42:19.134Z,15.27
2022-09-17T09:46:51.595Z,15.20
2022-09-17T09:51:20.448Z,15.16
2022-09-17T09:55:25.925Z,15.20
2022-09-17T09:59:28.350Z,15.34
2022-09-17T10:03:32.703Z,15.38
2022-09-17T10:07:44.116Z,15.41
2022-09-17T10:12:00.521Z,15.81
2022-09-17T10:16:17.936Z,16.16
2022-09-17T10:20:23.089Z,16.29
2022-09-17T10:24:28.826Z,16.27
2022-09-17T10:28:48.875Z,16.30
2022-09-17T10:33:17.369Z,16.44
2022-09-17T10:37:47.962Z,16.78
2022-09-17T10:41:57.848Z,17.07
2022-09-17T10:46:00.603Z,17.27
2022-09-17T10:50:07.940Z,17.51
2022-09-17T10:54:12.564Z,17.49
2022-09-17T10:58:14.973Z,17.47
2022-09-17T11:02:33.773Z,17.42
2022-09-17T11:06:55.118Z,17.17
2022-09-17T11:11:17.383Z,17.03
2022-09-17T11:15:21.839Z,17.06
2022-09-17T11:19:45.516Z,17.10
2022-09-17T11:24:08.998Z,16.91
2022-09-17T11:28:45.786Z,16.67
2022-09-17T11:32:52.891Z,16.73
2022-09-17T11:36:58.551Z,16.95
2022-09-17T11:41:04.828Z,16.98
2022-09-17T11:45:17.759Z,17.10
2022-09-17T11:49:32.920Z,16.96
2022-09-17T11:53:40.779Z,16.99
2022-09-17T11:57:44.406Z,16.84
2022-09-17T12:02:13.578Z,16.92
2022-09-17T12:06:20.735Z,17.14
2022-09-17T12:10:37.150Z,17.07
2022-09-17T12:14:47.759Z,17.07
2022-09-17T12:18:58.232Z,17.14
2022-09-17T12:23:04.923Z,16.78
2022-09-17T12:27:10.931Z,16.52
2022-09-17T12:31:36.863Z,16.81
2022-09-17T12:36:17.577Z,16.78
2022-09-17T12:40:28.453Z,16.67
2022-09-17T12:44:54.130Z,16.73
2022-09-17T12:49:33.960Z,16.99
2022-09-17T12:54:26.920Z,17.15
2022-09-17T12:58:34.005Z,17.17
2022-09-17T13:03:03.333Z,17.53
2022-09-17T13:07:29.403Z,17.65
2022-09-17T13:11:52.834Z,17.89
2022-09-17T13:16:13.372Z,18.09
2022-09-17T13:20:31.541Z,18.26
2022-09-17T13:24:34.751Z,17.91
2022-09-17T13:28:47.981Z,17.77
2022-09-17T13:32:52.000Z,18.01
2022-09-17T13:36:56.490Z,18.21
2022-09-17T13:41:20.289Z,18.32
2022-09-17T13:45:23.236Z,18.57
2022-09-17T13:49:24.920Z,18.78
2022-09-17T13:53:27.870Z,18.57
2022-09-17T13:57:33.426Z,18.75
2022-09-17T14:02:14.586Z,18.49
2022-09-17T14:06:18.609Z,18.19
2022-09-17T14:10:35.344Z,17.91
2022-09-17T14:14:50.570Z,17.62
2022-09-17T14:19:01.623Z,17.49
2022-09-17T14:23:03.552Z,17.46
2022-09-17T14:27:33.086Z,17.58
2022-09-17T14:31:36.896Z,17.62
2022-09-17T14:35:47.862Z,17.80
2022-09-17T14:39:51.645Z,18.14
2022-09-17T14:44:14.516Z,18.04
2022-09-17T14:48:31.117Z,18.42
2022-09-17T14:52:32.902Z,18.72
2022-09-17T14:56:39.885Z,18.51
2022-09-17T15:00:51.784Z,18.23
2022-09-17T15:04:53.358Z,17.89
2022-09-17T15:08:57.603Z,17.66
2022-09-17T15:12:59.217Z,17.39
2022-09-17T15:17:03.308Z,17.27
2022-09-17T15:21:15.030Z,17.03
2022-09-17T15:25:23.816Z,16.92
2022-09-17T15:29:30.952Z,16.90
2022-09-17T15:33:33.797Z,16.87
2022-09-17T15:37:55.865Z,16.70
2022-09-17T15:42:19.181Z,16.57
2022-09-17T15:46:27.114Z,16.66
2022-09-17T15:50:49.553Z,16.73
2022-09-17T15:54:51.073Z,16.70
2022-09-17T15:59:01.700Z,16.55
2022-09-17T16:03:38.413Z,16.37
2022-09-17T16:07:40.990Z,16.26
2022-09-17T16:11:43.957Z,16.04
2022-09-17T16:15:45.756Z,15.92
2022-09-17T16:19:47.296Z,15.81
2022-09-17T16:23:48.928Z,15.78
2022-09-17T16:27:58.040Z,15.81
2022-09-17T16:31:59.541Z,16.03
2022-09-17T16:36:01.244Z,15.95
2022-09-17T16:40:03.261Z,15.91
2022-09-17T16:44:04.760Z,15.80
2022-09-17T16:48:06.703Z,15.68
2022-09-17T16:52:08.317Z,15.66
2022-09-17T16:56:11.650Z,15.53
2022-09-17T17:00:19.011Z,15.46
2022-09-17T17:04:21.370Z,15.34
2022-09-17T17:08:23.116Z,15.31
2022-09-17T17:12:25.025Z,15.31
2022-09-17T17:16:26.626Z,15.19
2022-09-17T17:20:28.314Z,15.04
2022-09-17T17:24:29.811Z,14.95
2022-09-17T17:28:32.475Z,14.93
2022-09-17T17:32:35.464Z,14.87
2022-09-17T17:36:37.075Z,14.82
2022-09-17T17:40:38.691Z,14.67
2022-09-17T17:44:40.848Z,14.67
2022-09-17T17:48:43.685Z,14.56
2022-09-17T17:52:47.995Z,14.45
2022-09-17T17:56:49.784Z,14.39
2022-09-17T18:00:51.981Z,14.27
2022-09-17T18:04:53.467Z,14.24
2022-09-17T18:08:55.161Z,14.13
2022-09-17T18:12:56.896Z,13.94
2022-09-17T18:16:58.442Z,13.90
2022-09-17T18:21:02.181Z,13.81
2022-09-17T18:25:03.988Z,13.68
2022-09-17T18:29:08.009Z,13.63
2022-09-17T18:33:09.920Z,13.62
2022-09-17T18:37:11.564Z,13.54
2022-09-17T18:41:13.430Z,13.54
2022-09-17T18:45:14.954Z,13.51
2022-09-17T18:49:16.806Z,13.48
2022-09-17T18:53:18.315Z,13.51
2022-09-17T18:57:19.820Z,13.54
2022-09-17T19:01:23.804Z,13.61
2022-09-17T19:05:25.558Z,13.65
2022-09-17T19:09:27.102Z,13.66
2022-09-17T19:13:34.681Z,13.66
2022-09-17T19:17:36.190Z,13.65
2022-09-17T19:21:37.711Z,13.59
2022-09-17T19:25:39.287Z,13.55
2022-09-17T19:29:40.837Z,13.62
2022-09-17T19:33:43.279Z,13.63
2022-09-17T19:37:44.815Z,13.59
2022-09-17T19:41:46.365Z,13.55
2022-09-17T19:45:47.905Z,13.55
2022-09-17T19:49:52.295Z,13.57
2022-09-17T19:53:53.924Z,13.53
2022-09-17T19:57:55.459Z,13.55
2022-09-17T20:01:57.076Z,13.57
2022-09-17T20:06:04.323Z,13.48
2022-09-17T20:10:06.250Z,13.38
2022-09-17T20:14:10.448Z,13.39
2022-09-17T20:18:11.958Z,13.39
2022-09-17T20:22:13.522Z,13.38
2022-09-17T20:26:15.617Z,13.32
2022-09-17T20:30:17.210Z,13.35
2022-09-17T20:34:18.978Z,13.29
2022-09-17T20:42:41.976Z,13.28
2022-09-17T20:46:43.625Z,13.19
2022-09-17T20:50:54.969Z,13.17
2022-09-17T20:54:56.549Z,13.16
2022-09-17T20:59:09.264Z,13.17
2022-09-17T21:03:11.034Z,13.13
2022-09-17T21:07:12.616Z,13.12
2022-09-17T21:11:15.500Z,13.10
2022-09-17T21:15:17.068Z,13.13
2022-09-17T21:19:20.045Z,13.13
2022-09-17T21:23:28.929Z,13.13
2022-09-17T21:27:31.975Z,13.12
2022-09-17T21:31:36.828Z,13.04
2022-09-17T21:35:38.504Z,13.06
2022-09-17T21:39:40.085Z,13.06
2022-09-17T21:43:43.024Z,13.06
2022-09-17T21:47:44.612Z,13.07
2022-09-17T21:51:46.460Z,13.07
2022-09-17T21:55:48.101Z,13.01
2022-09-17T21:59:49.605Z,12.94
2022-09-17T22:03:51.211Z,12.92
2022-09-17T22:07:52.883Z,12.92
2022-09-17T22:11:54.798Z,12.87
2022-09-17T22:16:01.268Z,12.81
2022-09-17T22:20:03.970Z,12.84
2022-09-17T22:24:06.558Z,12.84
2022-09-17T22:28:21.113Z,12.84
2022-09-17T22:32:23.347Z,12.85
2022-09-17T22:36:26.445Z,12.88
2022-09-17T22:40:28.023Z,12.89
2022-09-17T22:44:29.619Z,12.88
2022-09-17T22:48:31.140Z,12.89
2022-09-17T22:52:32.920Z,12.96
2022-09-17T22:56:36.133Z,12.95
2022-09-17T23:00:37.619Z,12.95
2022-09-17T23:04:39.164Z,12.94
2022-09-17T23:08:41.191Z,12.95
2022-09-17T23:12:42.683Z,12.98
2022-09-17T23:16:46.742Z,13.01
2022-09-17T23:21:03.414Z,13.01
2022-09-17T23:25:05.296Z,12.99
2022-09-17T23:29:06.802Z,13.01
2022-09-17T23:33:09.323Z,13.01
2022-09-17T23:37:10.808Z,12.98
2022-09-17T23:41:21.088Z,12.91
2022-09-17T23:45:22.655Z,12.94
2022-09-17T23:49:24.314Z,12.91
2022-09-17T23:53:25.910Z,12.91
2022-09-17T23:57:28.771Z,12.91
